createdAt,value
2019-03-15T00:02:02.075Z,6.54
2019-03-15T00:04:32.536Z,6.53
2019-03-15T00:07:02.791Z,6.48
2019-03-15T00:09:33.000Z,6.48
2019-03-15T00:12:03.294Z,6.46
2019-03-15T00:14:33.875Z,6.45
2019-03-15T00:17:04.246Z,6.46
2019-03-15T00:19:34.658Z,6.44
2019-03-15T00:22:05.152Z,6.45
2019-03-15T00:24:35.379Z,6.45
2019-03-15T00:27:06.773Z,6.44
2019-03-15T00:29:36.902Z,6.46
2019-03-15T00:32:07.033Z,6.41
2019-03-15T00:34:37.182Z,6.46
2019-03-15T00:37:07.307Z,6.46
2019-03-15T00:39:37.342Z,6.45
2019-03-15T00:42:08.410Z,6.42
2019-03-15T00:44:38.575Z,6.41
2019-03-15T00:47:08.822Z,6.41
2019-03-15T00:49:38.946Z,6.42
2019-03-15T00:52:09.065Z,6.43
2019-03-15T00:54:39.194Z,6.42
2019-03-15T00:57:09.326Z,6.43
2019-03-15T00:59:39.376Z,6.45
2019-03-15T01:02:09.566Z,6.47
2019-03-15T01:04:39.654Z,6.47
2019-03-15T01:07:09.726Z,6.48
2019-03-15T01:09:39.841Z,6.48
2019-03-15T01:12:10.044Z,6.48
2019-03-15T01:14:40.089Z,6.48
2019-03-15T01:17:19.413Z,6.44
2019-03-15T01:19:56.489Z,6.47
2019-03-15T01:22:26.614Z,6.48
2019-03-15T01:24:56.932Z,6.50
2019-03-15T01:27:27.368Z,6.50
2019-03-15T01:29:57.949Z,6.48
2019-03-15T01:32:27.989Z,6.48
2019-03-15T01:34:58.187Z,6.46
2019-03-15T01:37:28.486Z,6.46
2019-03-15T01:39:58.858Z,6.44
2019-03-15T01:42:29.155Z,6.42
2019-03-15T01:44:59.518Z,6.41
2019-03-15T01:47:29.843Z,6.41
2019-03-15T01:49:59.891Z,6.38
2019-03-15T01:52:30.443Z,6.35
2019-03-15T01:55:00.450Z,6.33
2019-03-15T01:57:30.608Z,6.33
2019-03-15T02:00:00.811Z,6.33
2019-03-15T02:02:30.845Z,6.31
2019-03-15T02:05:00.973Z,6.29
2019-03-15T02:07:31.001Z,6.30
2019-03-15T02:10:01.128Z,6.32
2019-03-15T02:12:31.252Z,6.34
2019-03-15T02:15:01.378Z,6.36
2019-03-15T02:17:31.486Z,6.40
2019-03-15T02:20:01.622Z,6.40
2019-03-15T02:22:31.798Z,6.42
2019-03-15T02:25:01.866Z,6.44
2019-03-15T02:27:32.028Z,6.46
2019-03-15T02:30:02.139Z,6.49
2019-03-15T02:32:32.203Z,6.53
2019-03-15T02:35:02.298Z,6.54
2019-03-15T02:37:33.750Z,6.56
2019-03-15T02:40:04.396Z,6.60
2019-03-15T02:42:34.545Z,6.62
2019-03-15T02:45:06.180Z,6.63
2019-03-15T02:47:36.689Z,6.64
2019-03-15T02:50:07.092Z,6.66
2019-03-15T02:52:37.374Z,6.56
2019-03-15T02:55:07.653Z,6.72
2019-03-15T02:57:37.839Z,6.72
2019-03-15T03:00:08.077Z,6.72
2019-03-15T03:02:38.190Z,6.73
2019-03-15T03:05:09.077Z,6.72
2019-03-15T03:07:39.406Z,6.74
2019-03-15T03:10:10.368Z,6.73
2019-03-15T03:12:40.743Z,6.73
2019-03-15T03:15:11.305Z,6.74
2019-03-15T03:17:41.596Z,6.75
2019-03-15T03:20:11.980Z,6.78
2019-03-15T03:22:42.520Z,6.80
2019-03-15T03:25:12.597Z,6.84
2019-03-15T03:27:42.795Z,6.85
2019-03-15T03:30:16.669Z,6.86
2019-03-15T03:32:45.415Z,6.87
2019-03-15T03:35:15.596Z,6.89
2019-03-15T03:37:45.800Z,6.92
2019-03-15T03:40:19.816Z,6.93
2019-03-15T03:42:48.239Z,6.94
2019-03-15T03:45:18.559Z,6.96
2019-03-15T03:47:48.942Z,6.97
2019-03-15T03:50:19.323Z,6.99
2019-03-15T03:52:49.491Z,7.00
2019-03-15T03:55:19.851Z,7.00
2019-03-15T03:57:50.176Z,7.00
2019-03-15T04:00:20.411Z,7.00
2019-03-15T04:02:53.154Z,7.00
2019-03-15T04:05:22.466Z,7.00
2019-03-15T04:07:52.680Z,7.01
2019-03-15T04:10:22.738Z,7.03
2019-03-15T04:12:52.800Z,7.05
2019-03-15T04:15:23.009Z,7.08
2019-03-15T04:17:53.066Z,7.09
2019-03-15T04:20:23.113Z,7.13
2019-03-15T04:22:55.429Z,7.14
2019-03-15T04:25:25.004Z,7.14
2019-03-15T04:27:55.268Z,7.13
2019-03-15T04:30:25.484Z,7.13
2019-03-15T04:32:55.662Z,7.12
2019-03-15T04:35:25.809Z,7.10
2019-03-15T04:37:55.920Z,7.10
2019-03-15T04:40:26.386Z,7.12
2019-03-15T04:42:56.433Z,7.12
2019-03-15T04:45:26.568Z,7.13
2019-03-15T04:47:56.722Z,7.15
2019-03-15T04:50:26.831Z,7.17
2019-03-15T04:52:57.058Z,7.20
2019-03-15T04:55:27.423Z,7.22
2019-03-15T04:57:57.647Z,7.23
2019-03-15T05:00:27.820Z,7.24
2019-03-15T05:02:58.084Z,7.26
2019-03-15T05:05:28.312Z,7.27
2019-03-15T05:07:58.424Z,7.27
2019-03-15T05:10:28.519Z,7.28
2019-03-15T05:12:58.689Z,7.28
2019-03-15T05:15:28.980Z,7.28
2019-03-15T05:17:59.117Z,7.29
2019-03-15T05:20:29.431Z,7.31
2019-03-15T05:22:59.605Z,7.34
2019-03-15T05:25:30.288Z,7.35
2019-03-15T05:28:00.812Z,7.37
2019-03-15T05:30:31.326Z,7.38
2019-03-15T05:33:02.341Z,7.37
2019-03-15T05:35:33.024Z,7.35
2019-03-15T05:38:03.569Z,7.35
2019-03-15T05:40:33.951Z,7.34
2019-03-15T05:43:04.413Z,7.34
2019-03-15T05:45:35.410Z,7.29
2019-03-15T05:48:07.297Z,7.34
2019-03-15T05:50:40.656Z,7.35
2019-03-15T05:53:09.859Z,7.36
2019-03-15T05:55:40.317Z,7.38
2019-03-15T05:58:10.828Z,7.36
2019-03-15T06:00:41.257Z,7.34
2019-03-15T06:03:12.660Z,7.28
2019-03-15T06:05:43.323Z,7.27
2019-03-15T06:08:13.737Z,7.29
2019-03-15T06:10:44.597Z,7.29
2019-03-15T06:13:15.127Z,7.29
2019-03-15T06:15:45.590Z,7.28
2019-03-15T06:18:16.099Z,7.25
2019-03-15T06:20:46.612Z,7.28
2019-03-15T06:23:17.165Z,7.28
2019-03-15T06:25:47.576Z,7.29
2019-03-15T06:28:17.996Z,7.28
2019-03-15T06:30:48.540Z,7.35
2019-03-15T06:33:18.956Z,7.36
2019-03-15T06:35:49.392Z,7.38
2019-03-15T06:38:19.948Z,7.40
2019-03-15T06:40:50.638Z,7.42
2019-03-15T06:43:21.169Z,7.44
2019-03-15T06:45:51.801Z,7.48
2019-03-15T06:48:22.196Z,7.48
2019-03-15T06:50:52.759Z,7.53
2019-03-15T06:53:23.390Z,7.57
2019-03-15T06:55:54.021Z,7.59
2019-03-15T06:58:24.463Z,7.61
2019-03-15T07:00:55.018Z,7.63
2019-03-15T07:03:25.498Z,7.68
2019-03-15T07:05:55.646Z,7.71
2019-03-15T07:08:25.871Z,7.73
2019-03-15T07:10:56.127Z,7.80
2019-03-15T07:13:26.324Z,7.82
2019-03-15T07:15:56.521Z,7.85
2019-03-15T07:18:26.599Z,7.89
2019-03-15T07:20:56.733Z,7.93
2019-03-15T07:23:26.786Z,8.00
2019-03-15T07:25:56.960Z,8.06
2019-03-15T07:28:27.031Z,8.11
2019-03-15T07:30:57.354Z,8.18
2019-03-15T07:33:27.577Z,8.24
2019-03-15T07:35:57.723Z,8.30
2019-03-15T07:38:27.994Z,8.33
2019-03-15T07:40:58.231Z,8.37
2019-03-15T07:43:28.358Z,8.40
2019-03-15T07:45:58.606Z,8.44
2019-03-15T07:48:28.849Z,8.47
2019-03-15T07:50:59.036Z,8.49
2019-03-15T07:53:29.283Z,8.52
2019-03-15T07:55:59.543Z,8.59
2019-03-15T07:58:29.697Z,8.65
2019-03-15T08:00:59.955Z,8.70
2019-03-15T08:03:30.204Z,8.74
2019-03-15T08:06:00.328Z,8.74
2019-03-15T08:08:30.513Z,8.72
2019-03-15T08:11:00.702Z,8.76
2019-03-15T08:13:30.869Z,8.81
2019-03-15T08:16:01.369Z,8.82
2019-03-15T08:18:31.628Z,8.81
2019-03-15T08:21:01.937Z,8.79
2019-03-15T08:23:32.117Z,8.75
2019-03-15T08:26:02.426Z,8.75
2019-03-15T08:28:32.825Z,8.74
2019-03-15T08:31:05.242Z,8.71
2019-03-15T08:33:35.460Z,8.67
2019-03-15T08:36:06.945Z,8.61
2019-03-15T08:38:46.741Z,8.58
2019-03-15T08:41:08.949Z,8.53
2019-03-15T08:43:39.224Z,8.52
2019-03-15T08:46:09.416Z,8.52
2019-03-15T08:48:40.977Z,8.51
2019-03-15T08:51:11.237Z,8.46
2019-03-15T08:53:41.520Z,8.43
2019-03-15T08:56:14.372Z,8.39
2019-03-15T08:58:43.669Z,8.38
2019-03-15T09:01:13.800Z,8.38
2019-03-15T09:03:43.994Z,8.38
2019-03-15T09:06:14.235Z,8.42
2019-03-15T09:08:44.571Z,8.44
2019-03-15T09:11:14.820Z,8.43
2019-03-15T09:13:45.094Z,8.44
2019-03-15T09:16:19.605Z,8.45
2019-03-15T09:18:55.441Z,8.45
2019-03-15T09:21:25.993Z,8.46
2019-03-15T09:23:56.454Z,8.47
2019-03-15T09:26:26.667Z,8.48
2019-03-15T09:28:56.865Z,8.52
2019-03-15T09:31:26.994Z,8.55
2019-03-15T09:33:57.179Z,8.55
2019-03-15T09:36:33.957Z,8.58
2019-03-15T09:39:05.422Z,8.62
2019-03-15T09:41:39.962Z,8.68
2019-03-15T09:44:07.609Z,8.72
2019-03-15T09:46:39.914Z,8.78
2019-03-15T09:49:10.160Z,8.82
2019-03-15T09:51:40.357Z,8.85
2019-03-15T09:54:10.628Z,8.86
2019-03-15T09:56:40.899Z,8.89
2019-03-15T09:59:11.160Z,8.96
2019-03-15T10:01:44.930Z,9.04
2019-03-15T10:04:17.260Z,9.14
2019-03-15T10:06:47.127Z,9.22
2019-03-15T10:09:17.402Z,9.31
2019-03-15T10:11:47.701Z,9.38
2019-03-15T10:14:18.628Z,9.47
2019-03-15T10:16:59.808Z,9.50
2019-03-15T10:19:30.051Z,9.56
2019-03-15T10:22:00.282Z,9.65
2019-03-15T10:24:30.422Z,9.72
2019-03-15T10:27:00.752Z,9.79
2019-03-15T10:29:31.105Z,9.89
2019-03-15T10:32:01.279Z,10.00
2019-03-15T10:34:31.454Z,10.09
2019-03-15T10:37:01.598Z,10.20
2019-03-15T10:39:31.730Z,10.28
2019-03-15T10:42:02.020Z,10.44
2019-03-15T10:44:32.267Z,10.69
2019-03-15T10:47:02.462Z,11.00
2019-03-15T10:49:32.641Z,11.22
2019-03-15T10:52:02.901Z,11.38
2019-03-15T10:54:33.136Z,11.53
2019-03-15T10:57:03.389Z,11.62
2019-03-15T10:59:33.756Z,11.72
2019-03-15T11:02:04.053Z,11.81
2019-03-15T11:04:34.196Z,11.89
2019-03-15T11:07:04.454Z,11.97
2019-03-15T11:09:34.622Z,12.02
2019-03-15T11:12:04.920Z,12.08
2019-03-15T11:14:35.071Z,12.15
2019-03-15T11:17:05.312Z,12.18
2019-03-15T11:19:35.618Z,12.23
2019-03-15T11:22:06.995Z,12.30
2019-03-15T11:24:37.355Z,12.35
2019-03-15T11:27:07.811Z,12.28
2019-03-15T11:29:38.198Z,12.28
2019-03-15T11:32:08.393Z,12.24
2019-03-15T11:34:38.546Z,12.43
2019-03-15T11:37:08.799Z,12.49
2019-03-15T11:39:39.041Z,12.64
2019-03-15T11:42:09.397Z,12.91
2019-03-15T11:44:39.908Z,13.19
2019-03-15T11:47:10.566Z,13.53
2019-03-15T11:49:41.640Z,13.65
2019-03-15T11:52:12.091Z,13.71
2019-03-15T11:54:42.787Z,13.81
2019-03-15T11:57:13.338Z,14.06
2019-03-15T11:59:43.778Z,14.01
2019-03-15T12:02:15.118Z,13.78
2019-03-15T12:04:45.878Z,13.71
2019-03-15T12:07:17.799Z,13.93
2019-03-15T12:09:48.228Z,13.96
2019-03-15T12:12:21.542Z,13.97
2019-03-15T12:14:51.077Z,13.96
2019-03-15T12:17:21.536Z,14.17
2019-03-15T12:19:52.026Z,14.35
2019-03-15T12:22:22.658Z,14.41
2019-03-15T12:24:53.146Z,14.68
2019-03-15T12:27:23.605Z,14.59
2019-03-15T12:29:54.147Z,14.36
2019-03-15T12:32:24.616Z,14.17
2019-03-15T12:34:56.010Z,14.03
2019-03-15T12:37:26.411Z,13.85
2019-03-15T12:39:56.918Z,13.64
2019-03-15T12:42:27.353Z,13.51
2019-03-15T12:44:57.908Z,13.51
2019-03-15T12:47:28.401Z,13.64
2019-03-15T12:49:58.786Z,14.05
2019-03-15T12:52:29.120Z,14.03
2019-03-15T12:54:59.614Z,13.82
2019-03-15T12:57:30.019Z,13.68
2019-03-15T13:00:00.404Z,13.52
2019-03-15T13:02:30.863Z,13.38
2019-03-15T13:05:01.218Z,13.29
2019-03-15T13:07:31.777Z,13.13
2019-03-15T13:10:02.403Z,13.02
2019-03-15T13:12:32.804Z,12.98
2019-03-15T13:15:03.432Z,12.83
2019-03-15T13:17:34.046Z,12.72
2019-03-15T13:20:04.783Z,13.09
2019-03-15T13:22:35.343Z,13.25
2019-03-15T13:25:06.461Z,13.05
2019-03-15T13:27:36.994Z,12.90
2019-03-15T13:31:14.916Z,12.96
2019-03-15T13:33:45.439Z,12.81
2019-03-15T13:36:16.060Z,13.51
2019-03-15T13:38:46.721Z,13.53
2019-03-15T13:41:17.118Z,13.28
2019-03-15T13:43:47.649Z,13.40
2019-03-15T13:46:18.062Z,13.81
2019-03-15T13:48:48.552Z,13.90
2019-03-15T13:51:22.268Z,14.91
2019-03-15T13:53:51.112Z,15.60
2019-03-15T13:56:23.615Z,16.17
2019-03-15T14:01:27.861Z,18.04
2019-03-15T14:03:59.486Z,18.08
2019-03-15T14:06:32.465Z,18.00
2019-03-15T14:09:06.531Z,18.21
2019-03-15T14:11:37.589Z,18.23
2019-03-15T14:14:08.151Z,17.50
2019-03-15T14:16:40.032Z,16.75
2019-03-15T14:19:10.546Z,16.20
2019-03-15T14:21:40.946Z,15.84
2019-03-15T14:24:12.308Z,15.68
2019-03-15T14:26:45.297Z,15.59
2019-03-15T14:29:16.021Z,15.93
2019-03-15T14:31:46.617Z,15.46
2019-03-15T14:34:17.095Z,15.17
2019-03-15T14:36:48.155Z,15.16
2019-03-15T14:39:18.961Z,15.02
2019-03-15T14:41:49.802Z,15.08
2019-03-15T14:44:20.390Z,15.38
2019-03-15T14:46:51.212Z,15.46
2019-03-15T14:49:21.758Z,15.64
2019-03-15T14:51:52.773Z,15.29
2019-03-15T14:54:23.538Z,15.07
2019-03-15T14:59:36.181Z,15.05
2019-03-15T15:02:07.225Z,15.01
2019-03-15T15:04:37.780Z,15.61
2019-03-15T15:07:08.432Z,15.26
2019-03-15T15:09:40.592Z,14.49
2019-03-15T15:14:38.139Z,13.44
2019-03-15T15:17:08.742Z,13.14
2019-03-15T15:19:39.077Z,13.00
2019-03-15T15:22:09.830Z,12.93
2019-03-15T15:24:40.259Z,12.98
2019-03-15T15:27:10.771Z,12.95
2019-03-15T15:29:41.561Z,12.92
2019-03-15T15:32:12.079Z,12.94
2019-03-15T15:37:24.674Z,12.66
2019-03-15T15:39:55.209Z,12.58
2019-03-15T15:44:52.258Z,12.65
2019-03-15T15:47:22.790Z,12.71
2019-03-15T15:49:53.233Z,12.91
2019-03-15T15:52:25.417Z,13.35
2019-03-15T15:57:32.065Z,13.37
2019-03-15T16:00:02.496Z,13.31
2019-03-15T16:02:32.956Z,13.66
2019-03-15T16:05:03.437Z,13.93
2019-03-15T16:07:33.872Z,13.51
2019-03-15T16:10:04.384Z,12.99
2019-03-15T16:13:16.635Z,12.54
2019-03-15T16:15:36.891Z,12.33
2019-03-15T16:18:07.327Z,12.58
2019-03-15T16:20:37.758Z,13.03
2019-03-15T16:23:08.158Z,13.71
2019-03-15T16:25:39.436Z,14.29
2019-03-15T16:28:09.864Z,14.82
2019-03-15T16:30:41.493Z,15.13
2019-03-15T16:33:12.037Z,15.04
2019-03-15T16:35:42.859Z,14.35
2019-03-15T16:38:13.194Z,13.41
2019-03-15T16:40:45.465Z,12.75
2019-03-15T16:43:15.924Z,12.29
2019-03-15T16:45:46.313Z,11.94
2019-03-15T16:48:16.749Z,11.65
2019-03-15T16:50:51.557Z,11.40
2019-03-15T16:53:20.362Z,11.21
2019-03-15T16:55:50.784Z,11.08
2019-03-15T16:58:21.397Z,10.90
2019-03-15T17:00:51.829Z,10.78
2019-03-15T17:03:22.269Z,10.74
2019-03-15T17:05:52.806Z,10.68
2019-03-15T17:08:23.471Z,10.61
2019-03-15T17:10:54.009Z,10.51
2019-03-15T17:13:24.389Z,10.44
2019-03-15T17:15:54.968Z,10.36
2019-03-15T17:18:25.338Z,10.31
2019-03-15T17:20:55.898Z,10.20
2019-03-15T17:23:26.279Z,10.11
2019-03-15T17:25:56.726Z,10.04
2019-03-15T17:28:27.148Z,10.00
2019-03-15T17:31:09.190Z,9.93
2019-03-15T17:33:29.784Z,9.83
2019-03-15T17:36:00.262Z,9.75
2019-03-15T17:38:30.693Z,9.64
2019-03-15T17:41:01.231Z,9.59
2019-03-15T17:43:31.371Z,9.51
2019-03-15T17:46:01.655Z,9.51
2019-03-15T17:48:31.889Z,9.46
2019-03-15T17:51:06.598Z,9.41
2019-03-15T17:53:36.976Z,9.35
2019-03-15T17:56:07.231Z,9.26
2019-03-15T17:58:37.430Z,9.23
2019-03-15T18:01:07.825Z,9.22
2019-03-15T18:06:16.839Z,9.20
2019-03-15T18:08:47.019Z,9.11
2019-03-15T18:11:17.292Z,9.05
2019-03-15T18:13:48.653Z,9.03
2019-03-15T18:16:18.785Z,9.02
2019-03-15T18:18:49.763Z,8.99
2019-03-15T18:21:19.963Z,8.95
2019-03-15T18:23:50.034Z,8.87
2019-03-15T18:26:20.103Z,8.80
2019-03-15T18:28:50.262Z,8.78
2019-03-15T18:31:20.498Z,8.78
2019-03-15T18:33:50.641Z,8.75
2019-03-15T18:36:21.000Z,8.73
2019-03-15T18:38:51.202Z,8.70
2019-03-15T18:41:21.394Z,8.66
2019-03-15T18:43:51.560Z,8.64
2019-03-15T18:46:21.902Z,8.63
2019-03-15T18:48:52.201Z,8.60
2019-03-15T18:51:22.304Z,8.57
2019-03-15T18:53:52.527Z,8.56
2019-03-15T18:56:23.158Z,8.55
2019-03-15T18:58:53.875Z,8.48
2019-03-15T19:01:24.332Z,8.51
2019-03-15T19:03:54.839Z,8.48
2019-03-15T19:06:25.386Z,8.45
2019-03-15T19:08:57.798Z,8.45
2019-03-15T19:11:28.454Z,8.46
2019-03-15T19:13:59.092Z,8.47
2019-03-15T19:16:30.453Z,8.47
2019-03-15T19:19:00.980Z,8.47
2019-03-15T19:21:31.608Z,8.49
2019-03-15T19:24:02.013Z,8.48
2019-03-15T19:26:32.482Z,8.48
2019-03-15T19:29:02.822Z,8.45
2019-03-15T19:31:33.305Z,8.42
2019-03-15T19:34:03.763Z,8.41
2019-03-15T19:36:34.258Z,8.39
2019-03-15T19:39:06.096Z,8.37
2019-03-15T19:41:36.551Z,8.32
2019-03-15T19:44:07.057Z,8.31
2019-03-15T19:46:37.502Z,8.29
2019-03-15T19:49:08.071Z,8.27
2019-03-15T19:51:38.558Z,8.28
2019-03-15T19:54:09.063Z,8.26
2019-03-15T19:56:39.516Z,8.24
2019-03-15T19:59:10.065Z,8.25
2019-03-15T20:01:40.835Z,8.24
2019-03-15T20:04:11.341Z,8.23
2019-03-15T20:06:41.843Z,8.20
2019-03-15T20:09:12.669Z,8.17
2019-03-15T20:11:43.097Z,8.18
2019-03-15T20:14:13.393Z,8.18
2019-03-15T20:16:43.884Z,8.14
2019-03-15T20:19:14.382Z,8.15
2019-03-15T20:21:44.827Z,8.14
2019-03-15T20:24:15.348Z,8.09
2019-03-15T20:26:45.857Z,8.11
2019-03-15T20:29:16.295Z,8.08
2019-03-15T20:31:46.724Z,8.09
2019-03-15T20:34:17.186Z,8.12
2019-03-15T20:36:47.711Z,8.08
2019-03-15T20:39:18.148Z,8.09
2019-03-15T20:41:48.476Z,8.12
2019-03-15T20:44:28.391Z,8.15
2019-03-15T20:46:51.540Z,8.16
2019-03-15T20:49:23.559Z,8.19
2019-03-15T20:51:54.653Z,8.22
2019-03-15T20:54:25.178Z,8.26
2019-03-15T20:56:55.714Z,8.32
2019-03-15T20:59:26.206Z,8.36
2019-03-15T21:01:56.648Z,8.41
2019-03-15T21:04:27.074Z,8.44
2019-03-15T21:06:57.609Z,8.47
2019-03-15T21:09:28.130Z,8.46
2019-03-15T21:11:59.563Z,8.44
2019-03-15T21:14:30.002Z,8.41
2019-03-15T21:17:00.551Z,8.36
2019-03-15T21:19:31.113Z,8.30
2019-03-15T21:22:01.596Z,8.25
2019-03-15T21:24:32.064Z,8.21
2019-03-15T21:27:02.547Z,8.19
2019-03-15T21:29:32.979Z,8.21
2019-03-15T21:32:03.943Z,8.15
2019-03-15T21:34:34.464Z,8.11
2019-03-15T21:37:05.118Z,8.07
2019-03-15T21:39:35.510Z,8.13
2019-03-15T21:42:07.379Z,8.16
2019-03-15T21:44:37.883Z,8.15
2019-03-15T21:47:08.655Z,8.23
2019-03-15T21:49:39.153Z,8.24
2019-03-15T21:52:09.583Z,8.28
2019-03-15T21:54:40.403Z,8.30
2019-03-15T21:57:10.831Z,8.35
2019-03-15T21:59:41.297Z,8.37
2019-03-15T22:02:12.210Z,8.38
2019-03-15T22:04:42.939Z,8.39
2019-03-15T22:07:13.261Z,8.40
2019-03-15T22:09:43.894Z,8.38
2019-03-15T22:12:14.322Z,8.33
2019-03-15T22:14:44.846Z,8.32
2019-03-15T22:17:15.611Z,8.31
2019-03-15T22:19:46.115Z,8.30
2019-03-15T22:22:16.550Z,8.29
2019-03-15T22:24:47.145Z,8.24
2019-03-15T22:27:17.515Z,8.20
2019-03-15T22:29:53.414Z,8.14
2019-03-15T22:32:20.001Z,8.10
2019-03-15T22:34:50.189Z,8.06
2019-03-15T22:37:22.127Z,8.00
2019-03-15T22:39:52.261Z,7.93
2019-03-15T22:42:22.320Z,7.89
2019-03-15T22:44:52.890Z,7.87
2019-03-15T22:47:23.067Z,7.86
2019-03-15T22:49:53.284Z,7.85
2019-03-15T22:52:23.548Z,7.84
2019-03-15T22:54:53.746Z,7.83
2019-03-15T22:57:28.215Z,7.81
2019-03-15T22:59:58.253Z,7.78
2019-03-15T23:02:28.342Z,7.77
2019-03-15T23:04:58.469Z,7.77
2019-03-15T23:07:28.694Z,7.76
2019-03-15T23:09:58.809Z,7.73
2019-03-15T23:12:28.946Z,7.72
2019-03-15T23:14:59.005Z,7.70
2019-03-15T23:17:29.134Z,7.69
2019-03-15T23:19:59.263Z,7.71
2019-03-15T23:22:29.367Z,7.70
2019-03-15T23:24:59.495Z,7.69
2019-03-15T23:27:29.564Z,7.66
2019-03-15T23:29:59.630Z,7.66
2019-03-15T23:32:29.773Z,7.64
2019-03-15T23:34:59.862Z,7.62
2019-03-15T23:37:30.084Z,7.56
2019-03-15T23:40:00.435Z,7.52
2019-03-15T23:42:30.557Z,7.50
2019-03-15T23:45:00.669Z,7.50
2019-03-15T23:47:30.808Z,7.50
2019-03-15T23:50:00.987Z,7.53
2019-03-15T23:52:31.120Z,7.53
2019-03-15T23:55:01.190Z,7.50
2019-03-15T23:57:31.417Z,7.48
